Cabot, Arkansas
Current Conditions -  °F | °C
As of 5:18 AM on Monday 22 Dec 2014 (Local Time) from KLRF Reporting Station
Drizzle Drizzle  
Wind Chill: 44°   Ceiling: 400
Heat Index: 46°   Visibility: 5mi
Dew Point: 45°   Wind: 5mph
Humidity: 93%   Direction: 160°SSE
Pressure: 29.77"   Gusts: NA
Location:  34.97°N, 92.02°W
Report Text: KLRF 221118Z AUTO 16004KT 5SM -DZ BR OVC004 08/07 A2977 RMK AO2
Loading
Personal Weather Stations






























Interactive Weather Map New forecast layout! Learn more

10-Day Weather Forecast

Advertisements
Track Severe Weather on mobile